Time;durP1;ratioP1;P1;durP2;ratioP2;P2;SDS_P1;SDS_P2;PMS_P1;PMS_P2;Temp;Humidity;BMP_temperature;BMP_pressure;BME280_temperature;BME280_humidity;BME280_pressure;Samples;Min_cycle;Max_cycle;Signal;HPM_P1;HPM_P2
2021/09/02 00:00:09;;;;;;;14.90;13.50;;;;;;;17.36;53.72;96238.41;5010717;28;20045;-73
2021/09/02 00:02:35;;;;;;;17.20;15.38;;;;;;;17.36;53.72;96235.72;5012040;28;20030;-70
2021/09/02 00:05:00;;;;;;;15.70;14.13;;;;;;;17.32;53.62;96221.34;5011812;28;20034;-70
2021/09/02 00:07:25;;;;;;;14.75;13.32;;;;;;;17.35;53.64;96242.19;5014000;28;20030;-70
2021/09/02 00:09:51;;;;;;;16.85;15.07;;;;;;;17.28;53.69;96228.47;5011761;28;20034;-70
2021/09/02 00:12:16;;;;;;;18.35;16.38;;;;;;;17.22;53.54;96217.09;5012114;28;20088;-70
2021/09/02 00:14:42;;;;;;;15.90;14.40;;;;;;;17.12;53.55;96204.75;5011491;28;20048;-70
2021/09/02 00:17:07;;;;;;;16.30;14.38;;;;;;;17.14;53.69;96199.06;5011836;28;20029;-70
2021/09/02 00:19:33;;;;;;;18.52;16.33;;;;;;;17.24;53.61;96222.91;5011429;28;20665;-71
2021/09/02 00:21:58;;;;;;;17.95;15.55;;;;;;;17.23;53.65;96215.19;5013597;28;20022;-71
2021/09/02 00:24:24;;;;;;;16.70;15.00;;;;;;;17.14;53.48;96215.97;5011475;28;20038;-69
2021/09/02 00:26:49;;;;;;;16.77;15.07;;;;;;;16.94;53.59;96181.72;5011636;28;20038;-70
2021/09/02 00:29:15;;;;;;;18.05;16.20;;;;;;;17.15;53.83;96222.97;5010512;28;20053;-70
2021/09/02 00:31:40;;;;;;;15.90;14.32;;;;;;;17.07;53.78;96202.25;5010995;28;20033;-70
2021/09/02 00:34:05;;;;;;;19.02;15.98;;;;;;;17.14;53.70;96210.59;5013026;28;20042;-70
2021/09/02 00:36:31;;;;;;;19.35;16.10;;;;;;;17.00;53.61;96188.50;5010046;28;20048;-70
2021/09/02 00:38:56;;;;;;;17.70;15.75;;;;;;;16.92;53.52;96181.25;5010604;28;20152;-70
2021/09/02 00:41:21;;;;;;;17.30;15.60;;;;;;;16.99;53.36;96192.28;5011184;28;20103;-70
2021/09/02 00:43:48;;;;;;;18.08;16.17;;;;;;;17.01;54.17;96205.44;5010490;28;20030;-70
2021/09/02 00:46:14;;;;;;;15.30;13.70;;;;;;;16.94;54.04;96200.53;4995005;28;20022;-69
2021/09/02 00:48:41;;;;;;;15.05;13.55;;;;;;;17.01;54.06;96202.75;5010599;28;20083;-70
2021/09/02 00:51:06;;;;;;;20.63;14.90;;;;;;;16.97;53.83;96193.72;5010861;28;20034;-70
2021/09/02 00:53:32;;;;;;;13.50;12.23;;;;;;;16.87;53.97;96200.22;4993232;28;20033;-70
2021/09/02 00:55:58;;;;;;;16.48;14.55;;;;;;;16.92;54.02;96208.13;5010552;28;20026;-69
2021/09/02 00:58:24;;;;;;;17.08;15.05;;;;;;;16.86;53.78;96193.28;5012523;28;20026;-69
2021/09/02 01:00:49;;;;;;;14.02;12.55;;;;;;;16.76;53.63;96190.91;5009672;28;20045;-69
2021/09/02 01:03:19;;;;;;;20.35;17.85;;;;;;;16.84;53.51;96206.25;5010592;28;20041;-69
2021/09/02 01:05:50;;;;;;;22.10;16.70;;;;;;;16.74;53.68;96190.44;5010539;28;20038;-69
2021/09/02 01:08:16;;;;;;;17.52;15.70;;;;;;;16.67;53.88;96193.56;5010604;28;20121;-69
2021/09/02 01:10:42;;;;;;;21.38;17.10;;;;;;;16.66;53.99;96197.34;5009855;28;20119;-69
2021/09/02 01:13:08;;;;;;;17.20;15.52;;;;;;;16.62;54.15;96193.72;5012567;28;20472;-69
2021/09/02 01:15:33;;;;;;;20.70;17.35;;;;;;;16.63;53.89;96193.41;5009730;28;20077;-69
2021/09/02 01:18:00;;;;;;;19.33;16.27;;;;;;;16.48;54.01;96171.59;5010264;28;20048;-70
2021/09/02 01:20:28;;;;;;;22.75;18.42;;;;;;;16.62;54.02;96194.50;5009861;28;20108;-69
2021/09/02 01:22:57;;;;;;;27.45;18.70;;;;;;;16.59;53.90;96191.69;5010315;28;20069;-69
2021/09/02 01:25:28;;;;;;;22.70;16.92;;;;;;;16.56;53.65;96184.25;5012106;28;20029;-69
2021/09/02 01:27:57;;;;;;;15.13;13.60;;;;;;;16.48;53.92;96172.41;5010390;28;20124;-69
2021/09/02 01:30:23;;;;;;;15.57;13.98;;;;;;;16.53;53.66;96191.06;5009169;28;20075;-69
2021/09/02 01:32:50;;;;;;;21.30;17.25;;;;;;;16.51;53.82;96190.56;5010070;28;20092;-69
2021/09/02 01:35:18;;;;;;;19.55;17.50;;;;;;;16.47;54.01;96194.97;5009540;28;20037;-69
2021/09/02 01:37:56;;;;;;;16.13;14.57;;;;;;;16.36;53.82;96170.34;5010266;28;20396;-69
2021/09/02 01:40:26;;;;;;;20.30;16.25;;;;;;;16.46;53.83;96193.41;5011782;28;20088;-69
2021/09/02 01:42:52;;;;;;;17.08;14.77;;;;;;;16.40;53.72;96185.81;5010119;28;20034;-69
2021/09/02 01:45:18;;;;;;;16.67;14.77;;;;;;;16.37;53.87;96174.59;5009078;28;20117;-70
2021/09/02 01:47:43;;;;;;;22.35;18.35;;;;;;;16.26;53.96;96161.81;5009826;28;20038;-71
2021/09/02 01:50:17;;;;;;;17.23;15.10;;;;;;;16.31;53.91;96177.75;5009529;28;20092;-69
2021/09/02 01:52:44;;;;;;;20.17;16.77;;;;;;;16.28;54.10;96175.72;5009838;28;20025;-70
2021/09/02 01:55:11;;;;;;;18.25;15.38;;;;;;;16.26;53.79;96183.28;5011685;28;20028;-69
2021/09/02 01:57:38;;;;;;;15.55;14.15;;;;;;;16.24;54.15;96182.81;5009421;28;20041;-70
2021/09/02 02:00:06;;;;;;;16.98;15.18;;;;;;;16.25;53.77;96173.66;4991121;28;20034;-69
2021/09/02 02:02:31;;;;;;;15.93;14.20;;;;;;;16.22;53.70;96172.38;5009761;28;20399;-69
2021/09/02 02:04:56;;;;;;;14.45;13.05;;;;;;;16.11;53.83;96157.69;5009391;28;20120;-69
2021/09/02 02:07:22;;;;;;;16.75;14.50;;;;;;;16.21;54.08;96172.69;5011565;28;20058;-69
2021/09/02 02:09:47;;;;;;;15.70;14.07;;;;;;;16.13;54.03;96152.00;5009314;28;20042;-69
2021/09/02 02:12:13;;;;;;;17.30;13.82;;;;;;;16.14;54.12;96162.44;5009634;28;20084;-69
2021/09/02 02:14:38;;;;;;;21.60;17.90;;;;;;;16.14;54.40;96167.81;5009084;28;20065;-69
2021/09/02 02:17:04;;;;;;;16.50;14.30;;;;;;;16.14;53.82;96162.44;5009149;28;20052;-69
2021/09/02 02:19:29;;;;;;;20.73;15.60;;;;;;;15.94;54.30;96136.19;5011070;28;20026;-69
2021/09/02 02:21:54;;;;;;;18.60;14.73;;;;;;;15.94;54.44;96147.72;5009688;28;20052;-69
2021/09/02 02:24:20;;;;;;;18.85;16.02;;;;;;;15.96;54.79;96150.88;4991954;28;20375;-69
2021/09/02 02:26:45;;;;;;;20.60;17.23;;;;;;;15.96;54.56;96144.72;4991928;28;20505;-69
2021/09/02 02:29:11;;;;;;;16.25;14.55;;;;;;;16.07;54.66;96168.28;4990470;28;20567;-69
2021/09/02 02:31:36;;;;;;;21.40;18.77;;;;;;;15.99;54.61;96144.09;5007956;28;20125;-69
2021/09/02 02:34:02;;;;;;;24.48;18.42;;;;;;;15.97;55.07;96141.72;5010542;28;20083;-69
2021/09/02 02:36:27;;;;;;;25.73;20.70;;;;;;;16.11;54.78;96153.09;5009059;28;20041;-69
2021/09/02 02:38:53;;;;;;;25.92;20.42;;;;;;;16.15;54.48;96160.53;4991142;28;20065;-69
2021/09/02 02:41:18;;;;;;;25.67;18.75;;;;;;;16.15;54.57;96157.84;5008997;28;20465;-69
2021/09/02 02:43:44;;;;;;;27.73;20.88;;;;;;;16.11;54.44;96150.41;5009020;28;20033;-69
2021/09/02 02:46:09;;;;;;;22.80;18.30;;;;;;;16.00;54.56;96142.97;5009525;28;20052;-69
2021/09/02 02:48:34;;;;;;;27.30;18.85;;;;;;;16.07;54.38;96149.47;5008666;28;20038;-69
2021/09/02 02:51:00;;;;;;;18.27;16.48;;;;;;;16.05;54.71;96153.56;5008719;28;20034;-69
2021/09/02 02:53:25;;;;;;;18.30;16.45;;;;;;;15.96;54.15;96150.88;5008811;28;20104;-70
2021/09/02 02:55:50;;;;;;;26.10;18.25;;;;;;;15.98;54.23;96148.69;5008868;28;20038;-69
2021/09/02 02:58:16;;;;;;;22.77;18.65;;;;;;;15.81;54.70;96133.31;5010893;28;20109;-69
2021/09/02 03:00:41;;;;;;;23.48;18.75;;;;;;;15.87;54.42;96139.34;5007815;28;20057;-69
2021/09/02 03:03:07;;;;;;;29.95;18.98;;;;;;;15.92;54.70;96149.94;5008651;28;20391;-69
2021/09/02 03:05:32;;;;;;;18.77;16.20;;;;;;;15.93;54.43;96158.78;5008543;28;20041;-69
2021/09/02 03:07:57;;;;;;;34.33;23.05;;;;;;;15.83;54.04;96151.81;5008605;28;20558;-70
2021/09/02 03:10:23;;;;;;;23.08;17.67;;;;;;;15.85;54.53;96163.78;5010485;28;20026;-69
2021/09/02 03:12:48;;;;;;;24.92;19.23;;;;;;;15.60;54.19;96121.56;5009232;28;20037;-69
2021/09/02 03:15:14;;;;;;;31.48;19.90;;;;;;;15.80;54.58;96163.94;5008159;28;20434;-69
2021/09/02 03:17:39;;;;;;;24.25;19.77;;;;;;;15.77;54.49;96163.78;5008313;28;20049;-69
2021/09/02 03:20:06;;;;;;;22.08;18.52;;;;;;;15.69;54.15;96151.91;5008070;28;20077;-69
2021/09/02 03:22:31;;;;;;;25.92;19.10;;;;;;;15.72;54.47;96159.34;5008610;28;20048;-69
2021/09/02 03:24:57;;;;;;;16.38;14.82;;;;;;;15.64;54.41;96151.28;5010461;28;20029;-69
2021/09/02 03:27:23;;;;;;;26.42;19.92;;;;;;;15.58;54.41;96150.59;5008529;28;20136;-69
2021/09/02 03:29:48;;;;;;;21.80;19.40;;;;;;;15.51;54.05;96140.34;5007684;28;20042;-69
2021/09/02 03:32:13;;;;;;;28.33;19.60;;;;;;;15.52;54.25;96158.00;5008259;28;20057;-69
2021/09/02 03:34:39;;;;;;;21.10;18.60;;;;;;;15.47;54.65;96166.19;5008236;28;20022;-69
2021/09/02 03:37:04;;;;;;;20.58;18.23;;;;;;;15.52;55.12;96170.63;5010531;28;20045;-69
2021/09/02 03:39:30;;;;;;;25.35;20.67;;;;;;;15.53;54.83;96153.41;5008034;28;20062;-69
2021/09/02 03:41:55;;;;;;;23.80;17.80;;;;;;;15.52;54.66;96158.00;5008391;28;20038;-69
2021/09/02 03:44:20;;;;;;;18.92;16.55;;;;;;;15.46;54.60;96163.81;5007975;28;20096;-69
2021/09/02 03:46:46;;;;;;;30.75;21.77;;;;;;;15.56;54.76;96166.22;4990665;28;20029;-69
2021/09/02 03:49:11;;;;;;;23.27;19.90;;;;;;;15.46;54.92;96155.78;5010065;28;20022;-69
2021/09/02 03:51:37;;;;;;;33.88;22.83;;;;;;;15.57;55.34;96167.78;5008362;28;20038;-69
2021/09/02 03:54:02;;;;;;;20.20;17.58;;;;;;;15.52;55.30;96166.03;5008356;28;20096;-69
2021/09/02 03:56:27;;;;;;;31.25;19.95;;;;;;;15.57;55.44;96175.84;5008360;28;20160;-69
2021/09/02 03:58:53;;;;;;;19.00;16.98;;;;;;;15.63;55.28;96173.81;4993247;28;20042;-69
2021/09/02 04:01:19;;;;;;;29.13;21.67;;;;;;;15.57;55.45;96168.59;5013234;28;20022;-68
2021/09/02 04:03:44;;;;;;;25.48;19.15;;;;;;;15.64;54.95;96180.78;5011688;28;20529;-69
2021/09/02 04:06:10;;;;;;;22.00;18.67;;;;;;;15.41;54.70;96140.63;5011702;28;20041;-67
2021/09/02 04:08:35;;;;;;;24.17;18.45;;;;;;;15.57;54.72;96165.91;5011707;28;20044;-71
2021/09/02 04:11:00;;;;;;;23.63;19.80;;;;;;;15.43;54.83;96146.44;5011726;28;20109;-71
2021/09/02 04:13:26;;;;;;;35.97;23.33;;;;;;;15.59;54.96;96174.41;5013850;28;20044;-67
2021/09/02 04:15:51;;;;;;;33.67;24.23;;;;;;;15.52;55.13;96174.09;5011185;28;20040;-70
2021/09/02 04:18:17;;;;;;;26.00;20.70;;;;;;;15.23;54.60;96125.53;5011284;28;20045;-74
2021/09/02 04:20:42;;;;;;;25.42;19.25;;;;;;;15.35;54.70;96149.88;5011195;28;20030;-69
2021/09/02 04:23:08;;;;;;;26.02;19.92;;;;;;;15.47;54.86;96155.44;5011642;28;20026;-71
2021/09/02 04:25:34;;;;;;;26.83;20.27;;;;;;;15.60;55.44;96178.66;5012203;28;20041;-73
2021/09/02 04:27:59;;;;;;;28.67;21.20;;;;;;;15.50;55.14;96160.19;5013626;28;20040;-72
2021/09/02 04:30:25;;;;;;;32.30;19.08;;;;;;;15.60;55.15;96170.63;5010547;28;20042;-68
2021/09/02 04:32:50;;;;;;;30.88;22.25;;;;;;;15.72;55.01;96180.03;5011587;28;20206;-69
2021/09/02 04:35:16;;;;;;;36.47;23.98;;;;;;;15.73;54.98;96174.34;4994029;28;20046;-67
2021/09/02 04:37:46;;;;;;;33.97;22.98;;;;;;;15.81;54.80;96186.19;5011623;28;20022;-70
2021/09/02 04:40:13;;;;;;;25.75;20.48;;;;;;;15.74;55.34;96175.13;5012854;28;20121;-68
2021/09/02 04:42:38;;;;;;;31.88;23.65;;;;;;;15.71;55.39;96165.78;5010824;28;20057;-69
2021/09/02 04:45:05;;;;;;;27.50;21.33;;;;;;;15.84;55.26;96169.47;5010393;28;20068;-70
2021/09/02 04:47:31;;;;;;;25.25;20.75;;;;;;;15.63;55.69;96131.72;5009400;28;20379;-71
2021/09/02 04:49:56;;;;;;;35.58;25.02;;;;;;;15.68;55.15;96120.06;5011127;28;20117;-86
2021/09/02 04:52:22;;;;;;;32.30;22.48;;;;;;;16.11;54.90;96171.88;4998402;28;20109;-86
2021/09/02 04:54:48;;;;;;;21.40;18.92;;;;;;;16.17;54.88;96171.72;4995765;28;20041;-86
2021/09/02 04:57:13;;;;;;;26.77;21.15;;;;;;;15.71;54.78;96104.09;4982672;28;20597;-81
2021/09/02 04:59:39;;;;;;;22.30;19.85;;;;;;;16.14;55.14;96156.28;4991034;28;20120;-69
2021/09/02 05:02:04;;;;;;;25.63;20.20;;;;;;;16.11;55.01;96137.00;5006707;28;20096;-69
2021/09/02 05:04:30;;;;;;;21.52;19.23;;;;;;;16.18;54.80;96146.50;5012241;28;20033;-69
2021/09/02 05:06:55;;;;;;;21.27;18.55;;;;;;;16.09;54.88;96123.09;5010483;28;20129;-68
2021/09/02 05:09:20;;;;;;;27.55;21.00;;;;;;;16.05;54.77;96089.94;5008801;28;20044;-69
2021/09/02 05:11:46;;;;;;;22.25;18.70;;;;;;;16.47;54.49;96143.16;5010312;28;20053;-73
2021/09/02 05:14:11;;;;;;;21.05;18.77;;;;;;;16.49;54.74;96132.91;5010599;28;20042;-73
2021/09/02 05:16:37;;;;;;;23.00;19.25;;;;;;;16.76;55.07;96182.84;5010014;28;20018;-73
2021/09/02 05:19:03;;;;;;;19.05;17.08;;;;;;;16.76;54.72;96155.97;5011847;28;20026;-73
2021/09/02 05:21:28;;;;;;;25.65;22.33;;;;;;;16.87;54.25;96152.63;4992892;28;20038;-73
2021/09/02 05:23:54;;;;;;;25.40;19.50;;;;;;;17.05;53.73;96169.53;5010547;28;20550;-73
2021/09/02 05:26:19;;;;;;;18.40;16.45;;;;;;;17.21;53.93;96185.16;5010367;28;20034;-72
2021/09/02 05:28:45;;;;;;;21.45;18.33;;;;;;;17.29;53.66;96187.78;5010088;28;20084;-74
2021/09/02 05:31:10;;;;;;;17.00;15.40;;;;;;;17.08;53.45;96142.00;5011822;28;20026;-74
2021/09/02 05:33:36;;;;;;;17.25;14.43;;;;;;;17.28;53.57;96180.84;5010057;28;20037;-73
2021/09/02 05:36:02;;;;;;;16.67;15.13;;;;;;;17.26;53.55;96156.19;4991573;28;20396;-72
2021/09/02 05:38:27;;;;;;;17.60;16.05;;;;;;;17.08;53.15;96123.19;5009685;28;20120;-72
2021/09/02 05:40:53;;;;;;;15.20;13.60;;;;;;;17.04;53.45;96098.03;5009401;28;20456;-69
2021/09/02 05:43:18;;;;;;;15.75;14.25;;;;;;;17.24;53.11;96125.34;5011835;28;20022;-67
2021/09/02 05:45:44;;;;;;;15.45;13.93;;;;;;;17.44;52.90;96135.38;5009649;28;20104;-74
2021/09/02 05:48:09;;;;;;;17.42;15.35;;;;;;;17.74;53.09;96173.09;4992256;28;20068;-77
2021/09/02 05:50:35;;;;;;;13.82;12.50;;;;;;;17.81;53.05;96173.38;5010057;28;20033;-78
2021/09/02 05:53:00;;;;;;;16.83;12.98;;;;;;;17.90;52.88;96166.81;5010337;28;20092;-76
2021/09/02 05:55:25;;;;;;;14.15;12.50;;;;;;;18.12;52.63;96179.22;5012192;28;20030;-68
2021/09/02 05:57:51;;;;;;;14.70;13.18;;;;;;;18.20;52.69;96174.88;5009550;28;20034;-67
2021/09/02 06:00:16;;;;;;;15.88;14.20;;;;;;;18.29;53.08;96180.22;5008611;28;20057;-69
2021/09/02 06:02:42;;;;;;;19.88;15.50;;;;;;;18.24;53.33;96173.13;5009575;28;20032;-69
2021/09/02 06:05:08;;;;;;;14.98;11.82;;;;;;;18.29;52.81;96172.94;5006582;28;20045;-68
2021/09/02 06:07:33;;;;;;;18.73;12.57;;;;;;;18.50;52.42;96183.72;5009815;28;20025;-84
2021/09/02 06:09:59;;;;;;;16.08;12.75;;;;;;;18.69;51.99;96196.75;5013815;28;20026;-82
2021/09/02 06:12:24;;;;;;;15.13;11.85;;;;;;;18.81;51.48;96183.31;5011520;28;20070;-75
2021/09/02 06:14:49;;;;;;;12.27;11.13;;;;;;;18.91;51.25;96185.59;5010353;28;20121;-79
2021/09/02 06:17:15;;;;;;;11.27;10.07;;;;;;;18.78;51.12;96170.50;5009539;28;20050;-79
2021/09/02 06:19:41;;;;;;;16.27;11.57;;;;;;;18.65;51.07;96160.75;5010119;28;20499;-71
2021/09/02 06:22:06;;;;;;;15.20;11.27;;;;;;;19.09;51.29;96190.81;4994147;28;20030;-76
2021/09/02 06:24:32;;;;;;;10.75;9.85;;;;;;;18.84;51.18;96188.06;5010193;28;20034;-82
2021/09/02 06:26:57;;;;;;;10.35;9.25;;;;;;;18.69;51.41;96191.38;5010683;28;20041;-81
2021/09/02 06:29:23;;;;;;;10.98;9.25;;;;;;;18.79;51.10;96190.16;4993524;28;20038;-77
2021/09/02 06:31:48;;;;;;;13.75;9.95;;;;;;;19.09;50.78;96190.81;5010575;28;20084;-78
2021/09/02 06:34:13;;;;;;;9.68;8.73;;;;;;;19.19;50.69;96182.31;5012913;28;20502;-82
2021/09/02 06:36:39;;;;;;;11.88;8.73;;;;;;;19.23;50.38;96194.78;4991631;28;20038;-76
2021/09/02 06:39:05;;;;;;;10.27;8.48;;;;;;;19.19;50.20;96176.91;5008842;28;20034;-74
2021/09/02 06:41:30;;;;;;;10.15;9.15;;;;;;;19.20;50.30;96190.09;5010670;28;20049;-80
2021/09/02 06:43:55;;;;;;;9.73;8.93;;;;;;;19.14;49.99;96191.41;5010981;28;20079;-81
2021/09/02 06:46:21;;;;;;;14.45;8.68;;;;;;;19.43;49.76;96200.47;5012444;28;20030;-78
2021/09/02 06:48:46;;;;;;;8.95;8.02;;;;;;;19.47;49.94;96194.06;4993239;28;20036;-81
2021/09/02 06:51:11;;;;;;;10.60;8.10;;;;;;;19.49;50.06;96186.41;5011185;28;20034;-80
2021/09/02 06:53:37;;;;;;;9.32;8.52;;;;;;;19.54;50.09;96196.19;5011039;28;20547;-77
2021/09/02 06:56:07;;;;;;;9.07;8.18;;;;;;;19.63;49.76;96185.34;5010097;28;20121;-78
2021/09/02 06:58:32;;;;;;;9.18;8.27;;;;;;;19.71;50.03;96193.34;5010313;28;20033;-78
2021/09/02 07:00:58;;;;;;;9.27;8.48;;;;;;;19.59;50.04;96184.41;5011690;28;20513;-78
2021/09/02 07:03:23;;;;;;;10.20;9.20;;;;;;;19.44;49.83;96166.97;5010210;28;20120;-80
2021/09/02 07:05:48;;;;;;;9.55;8.50;;;;;;;19.61;49.52;96176.81;5010893;28;20392;-81
2021/09/02 07:08:14;;;;;;;9.48;8.68;;;;;;;19.73;49.76;96180.28;4993359;28;20052;-79
2021/09/02 07:10:39;;;;;;;10.20;8.68;;;;;;;20.11;49.53;96202.66;5010490;28;20059;-79
2021/09/02 07:13:05;;;;;;;10.20;8.00;;;;;;;20.22;49.11;96185.66;5012668;28;20053;-78
2021/09/02 07:15:30;;;;;;;9.02;8.13;;;;;;;20.43;48.89;96198.25;5010315;28;20062;-79
2021/09/02 07:17:57;;;;;;;9.40;8.50;;;;;;;20.14;48.03;96205.47;5010708;28;20045;-80
2021/09/02 07:20:23;;;;;;;8.93;8.23;;;;;;;20.18;48.53;96202.91;5010329;28;20046;-79
2021/09/02 07:22:48;;;;;;;9.07;8.18;;;;;;;20.37;48.01;96203.09;5010382;28;20041;-79
2021/09/02 07:25:13;;;;;;;8.48;7.68;;;;;;;20.52;48.17;96209.72;5012605;28;20022;-79
2021/09/02 07:27:39;;;;;;;9.10;7.40;;;;;;;20.17;48.44;96155.41;5010363;28;20064;-79
2021/09/02 07:30:05;;;;;;;7.82;6.70;;;;;;;20.40;48.44;96207.81;5010046;28;20089;-77
2021/09/02 07:32:30;;;;;;;7.95;6.70;;;;;;;20.28;48.55;96207.06;5009825;28;20038;-77
2021/09/02 07:34:56;;;;;;;6.88;6.28;;;;;;;20.70;47.49;96204.84;5013669;28;20052;-78
2021/09/02 07:37:22;;;;;;;7.38;6.68;;;;;;;20.77;46.93;96218.56;4998690;28;20128;-78
2021/09/02 07:39:47;;;;;;;7.15;6.53;;;;;;;20.59;46.34;96190.25;5014019;28;20061;-81
2021/09/02 07:42:12;;;;;;;7.28;6.57;;;;;;;20.72;46.38;96195.25;5013096;28;20044;-81
2021/09/02 07:44:38;;;;;;;7.40;6.68;;;;;;;20.44;46.78;96197.13;5012942;28;20391;-80
2021/09/02 07:47:04;;;;;;;7.18;6.47;;;;;;;20.90;46.68;96213.91;5013606;28;20038;-81
2021/09/02 07:49:29;;;;;;;7.13;6.43;;;;;;;21.21;45.42;96214.00;5015947;28;20104;-82
2021/09/02 07:51:55;;;;;;;7.32;6.03;;;;;;;21.09;46.03;96200.53;5014477;28;20632;-82
2021/09/02 07:54:20;;;;;;;6.20;5.60;;;;;;;21.33;45.43;96209.66;5012696;28;20552;-81
2021/09/02 07:56:45;;;;;;;6.32;5.82;;;;;;;21.41;44.96;96197.91;5014023;28;20042;-80
2021/09/02 07:59:11;;;;;;;6.38;5.88;;;;;;;21.44;45.37;96208.81;5013781;28;20376;-79
2021/09/02 08:01:36;;;;;;;6.25;5.75;;;;;;;21.66;45.01;96222.91;5013264;28;20041;-78
2021/09/02 08:04:02;;;;;;;7.97;6.28;;;;;;;21.85;44.70;96241.94;5015044;28;20426;-73
2021/09/02 08:06:28;;;;;;;6.18;5.57;;;;;;;21.69;44.46;96208.66;4994981;28;20042;-79
2021/09/02 08:08:54;;;;;;;6.53;6.00;;;;;;;21.63;45.55;96235.22;4995537;28;20096;-74
2021/09/02 08:11:19;;;;;;;6.35;5.55;;;;;;;21.20;45.94;96225.16;4996015;28;20407;-81
2021/09/02 08:13:44;;;;;;;5.80;5.30;;;;;;;21.83;44.36;96209.00;5013982;28;20109;-82
2021/09/02 08:16:10;;;;;;;5.95;5.32;;;;;;;21.85;44.03;96205.94;5015399;28;20451;-82
2021/09/02 08:18:35;;;;;;;6.32;5.72;;;;;;;21.95;44.00;96225.16;5013630;28;20052;-81
2021/09/02 08:21:01;;;;;;;6.65;6.05;;;;;;;21.49;45.01;96232.13;5012413;28;20494;-73
2021/09/02 08:23:27;;;;;;;6.85;5.38;;;;;;;21.74;45.15;96225.44;5008355;28;20030;-71
2021/09/02 08:25:52;;;;;;;8.57;5.22;;;;;;;22.07;44.66;96221.59;5011217;28;20448;-71
2021/09/02 08:28:17;;;;;;;5.97;4.97;;;;;;;22.16;44.03;96230.34;5013125;28;20510;-71
2021/09/02 08:30:43;;;;;;;6.03;5.10;;;;;;;22.76;43.39;96225.44;5010216;28;20542;-70
2021/09/02 08:33:08;;;;;;;6.22;5.63;;;;;;;22.59;42.67;96231.31;5010905;28;20483;-71
2021/09/02 08:35:34;;;;;;;5.68;5.18;;;;;;;22.58;41.82;96227.03;5011139;28;20407;-71
2021/09/02 08:38:06;;;;;;;5.10;4.70;;;;;;;23.04;41.84;96230.72;5010990;28;20066;-72
2021/09/02 08:40:33;;;;;;;;;;;;;;;22.88;41.23;96238.16;4993261;28;20033;-72
2021/09/02 08:43:00;;;;;;;5.13;4.63;;;;;;;22.89;39.92;96231.56;5013123;28;20255;-79
2021/09/02 08:45:27;;;;;;;5.13;4.63;;;;;;;22.51;39.72;96197.03;4991887;28;20034;-83
2021/09/02 08:47:53;;;;;;;7.38;4.35;;;;;;;22.17;40.19;96201.31;4994812;28;20040;-79
2021/09/02 08:50:23;;;;;;;5.40;4.88;;;;;;;22.37;40.20;96231.94;5010900;28;20100;-80
2021/09/02 08:52:48;;;;;;;5.43;4.93;;;;;;;22.28;40.35;96213.97;4995266;28;20021;-82
2021/09/02 08:55:14;;;;;;;6.18;5.00;;;;;;;22.65;39.59;96235.28;5014833;28;20100;-81
2021/09/02 08:57:40;;;;;;;4.75;4.35;;;;;;;22.35;40.25;96190.88;4994376;28;20045;-80
2021/09/02 09:00:07;;;;;;;5.22;4.78;;;;;;;22.90;40.18;96191.66;4995135;28;20080;-80
2021/09/02 09:02:33;;;;;;;5.38;4.97;;;;;;;23.06;39.97;96222.22;4994742;28;20034;-80
2021/09/02 09:05:07;;;;;;;9.73;4.80;;;;;;;23.38;39.61;96233.66;4995147;28;20530;-80
2021/09/02 09:07:37;;;;;;;6.72;5.25;;;;;;;23.48;39.40;96199.72;4994927;28;20129;-79
2021/09/02 09:10:08;;;;;;;7.40;4.93;;;;;;;23.07;39.00;96191.22;4996817;28;20038;-79
2021/09/02 09:12:38;;;;;;;5.00;4.50;;;;;;;23.55;39.08;96202.56;4994880;28;20587;-79
2021/09/02 09:15:06;;;;;;;4.90;4.50;;;;;;;23.88;38.50;96220.22;4994849;28;20030;-80
2021/09/02 09:17:32;;;;;;;5.43;4.93;;;;;;;23.69;38.32;96183.03;5011642;28;20375;-78
2021/09/02 09:19:58;;;;;;;5.30;4.80;;;;;;;23.20;39.58;96195.34;5011592;28;20034;-80
2021/09/02 09:22:26;;;;;;;6.05;5.43;;;;;;;23.60;39.85;96218.56;4996688;28;20030;-80
2021/09/02 09:24:57;;;;;;;5.30;4.75;;;;;;;23.17;39.72;96215.06;4994671;28;20038;-81
2021/09/02 09:27:34;;;;;;;5.18;4.40;;;;;;;22.55;40.85;96220.38;4994643;28;20085;-81
2021/09/02 09:30:12;;;;;;;9.15;4.90;;;;;;;22.13;40.86;96155.16;4994013;28;20053;-81
2021/09/02 09:32:48;;;;;;;5.40;5.00;;;;;;;23.03;40.23;96229.16;4993860;28;20053;-77
2021/09/02 09:35:20;;;;;;;5.47;4.72;;;;;;;22.86;39.52;96228.75;4994518;28;20042;-82
2021/09/02 09:37:50;;;;;;;6.28;4.65;;;;;;;22.43;40.11;96179.06;4994681;28;20030;-80
2021/09/02 09:40:20;;;;;;;5.78;4.95;;;;;;;23.05;39.75;96235.00;4996547;28;20026;-79
2021/09/02 09:43:06;;;;;;;7.57;5.10;;;;;;;23.08;38.87;96176.50;5011754;28;20376;-79
2021/09/02 09:45:33;;;;;;;5.22;4.72;;;;;;;23.64;38.87;96221.34;4993907;28;20041;-80
2021/09/02 09:47:58;;;;;;;5.28;4.88;;;;;;;23.44;38.84;96171.72;4993777;28;20050;-80
2021/09/02 09:50:23;;;;;;;5.45;4.88;;;;;;;23.62;38.07;96161.94;4993854;28;20392;-80
2021/09/02 09:52:49;;;;;;;5.18;4.68;;;;;;;22.73;38.73;96180.06;4994441;28;20077;-80
2021/09/02 09:55:18;;;;;;;5.13;4.72;;;;;;;22.93;39.08;96209.91;4996055;28;20115;-80
2021/09/02 09:57:46;;;;;;;5.43;4.93;;;;;;;23.54;38.41;96161.03;4994172;28;20402;-80
2021/09/02 10:00:14;;;;;;;5.32;4.82;;;;;;;23.14;38.44;96207.66;4993375;28;20121;-78
2021/09/02 10:02:46;;;;;;;6.55;4.85;;;;;;;23.07;37.78;96158.66;4993316;28;20439;-79
2021/09/02 10:05:13;;;;;;;5.47;4.60;;;;;;;23.30;38.46;96211.03;4993675;28;20127;-79
2021/09/02 10:07:42;;;;;;;4.18;3.78;;;;;;;23.57;37.65;96197.56;4993204;28;20037;-79
2021/09/02 10:10:10;;;;;;;5.68;4.60;;;;;;;23.40;37.74;96152.66;4995660;28;20033;-79
2021/09/02 10:12:37;;;;;;;4.90;4.50;;;;;;;24.01;36.58;96153.66;4992940;28;20034;-79
2021/09/02 10:15:07;;;;;;;4.90;4.40;;;;;;;24.09;36.58;96168.91;5010499;28;20191;-78
2021/09/02 10:17:34;;;;;;;4.80;4.40;;;;;;;24.17;36.19;96139.91;4992419;28;20411;-79
2021/09/02 10:20:15;;;;;;;5.22;4.82;;;;;;;24.42;37.13;96192.72;4992945;28;20042;-78
2021/09/02 10:22:41;;;;;;;5.63;4.53;;;;;;;24.00;36.78;96209.13;4993340;28;20029;-81
2021/09/02 10:25:32;;;;;;;4.40;4.00;;;;;;;23.37;37.10;96185.94;4995775;28;20033;-79
2021/09/02 10:28:11;;;;;;;4.28;3.97;;;;;;;23.99;35.82;96194.00;5011233;28;20038;-78
2021/09/02 10:30:45;;;;;;;4.30;3.90;;;;;;;23.76;35.37;96186.66;4993005;28;20045;-77
2021/09/02 10:33:34;;;;;;;4.85;4.38;;;;;;;24.28;35.36;96193.28;4992729;28;20041;-80
2021/09/02 10:36:01;;;;;;;4.22;3.80;;;;;;;23.97;35.73;96197.06;4993461;28;20050;-79
2021/09/02 10:38:39;;;;;;;3.92;3.55;;;;;;;24.05;35.74;96197.97;5010893;28;20193;-79
2021/09/02 10:41:05;;;;;;;4.05;3.65;;;;;;;24.24;34.59;96148.94;4993107;28;20545;-79
2021/09/02 10:43:53;;;;;;;4.80;4.40;;;;;;;24.82;34.35;96189.34;4993260;28;20021;-75
2021/09/02 10:46:43;;;;;;;4.75;4.28;;;;;;;24.71;35.46;96188.41;5012323;28;20119;-78
2021/09/02 10:49:23;;;;;;;4.70;4.07;;;;;;;24.94;34.41;96147.50;4992449;28;20065;-79
2021/09/02 10:51:56;;;;;;;4.40;4.03;;;;;;;25.43;34.54;96173.69;4991956;28;20426;-78
2021/09/02 10:54:24;;;;;;;5.45;4.78;;;;;;;25.15;35.01;96174.19;4993114;28;20038;-78
2021/09/02 10:56:58;;;;;;;4.90;4.50;;;;;;;24.58;35.99;96168.84;4993106;28;20026;-80
2021/09/02 10:59:42;;;;;;;5.10;4.70;;;;;;;25.00;35.03;96173.22;4991014;28;20034;-78
2021/09/02 11:02:28;;;;;;;4.97;4.47;;;;;;;24.96;35.36;96174.34;4991311;28;20042;-78
2021/09/02 11:04:58;;;;;;;4.93;4.47;;;;;;;24.59;37.05;96161.47;4980328;28;20557;-79
2021/09/02 11:07:44;;;;;;;5.53;4.90;;;;;;;24.69;36.09;96174.41;4995652;28;20065;-78
2021/09/02 11:10:14;;;;;;;4.65;4.30;;;;;;;24.33;34.83;96140.50;4995680;28;20038;-78
2021/09/02 11:12:40;;;;;;;5.30;4.57;;;;;;;24.20;35.69;96174.50;4996878;28;20038;-79
2021/09/02 11:15:07;;;;;;;4.60;4.18;;;;;;;23.35;37.26;96137.44;4996332;28;20395;-77
2021/09/02 11:17:33;;;;;;;4.22;3.92;;;;;;;23.92;36.64;96147.69;5013637;28;20072;-77
2021/09/02 11:19:58;;;;;;;5.10;4.28;;;;;;;24.31;36.01;96126.47;4995126;28;20065;-78
2021/09/02 11:22:24;;;;;;;4.75;4.35;;;;;;;24.16;35.32;96155.44;5015900;28;20068;-75